createdAt,value
2019-03-23T00:01:53.799Z,98.40
2019-03-23T00:04:22.187Z,98.40
2019-03-23T00:06:50.577Z,98.50
2019-03-23T00:09:18.955Z,98.00
2019-03-23T00:11:47.336Z,98.00
2019-03-23T00:14:15.781Z,98.10
2019-03-23T00:16:44.185Z,99.40
2019-03-23T00:19:12.581Z,99.40
2019-03-23T00:21:40.980Z,99.30
2019-03-23T00:24:09.364Z,99.40
2019-03-23T00:26:37.755Z,99.70
2019-03-23T00:29:06.148Z,99.90
2019-03-23T00:31:34.539Z,99.90
2019-03-23T00:34:02.920Z,99.90
2019-03-23T00:36:40.828Z,99.90
2019-03-23T00:39:01.672Z,99.90
2019-03-23T00:41:30.055Z,99.90
2019-03-23T00:43:58.447Z,99.90
2019-03-23T00:46:26.833Z,99.90
2019-03-23T00:48:55.215Z,99.90
2019-03-23T00:51:23.612Z,99.90
2019-03-23T00:53:51.999Z,99.90
2019-03-23T00:56:20.380Z,99.90
2019-03-23T00:58:48.780Z,99.90
2019-03-23T01:01:17.164Z,99.90
2019-03-23T01:03:45.541Z,99.90
2019-03-23T01:06:13.939Z,99.90
2019-03-23T01:08:42.317Z,99.90
2019-03-23T01:11:10.719Z,99.90
2019-03-23T01:13:39.104Z,99.90
2019-03-23T01:16:07.476Z,99.90
2019-03-23T01:18:35.887Z,99.90
2019-03-23T01:21:04.284Z,99.90
2019-03-23T01:23:32.668Z,99.90
2019-03-23T01:26:01.073Z,99.90
2019-03-23T01:28:29.523Z,99.90
2019-03-23T01:30:57.903Z,99.90
2019-03-23T01:33:26.294Z,99.90
2019-03-23T01:35:54.684Z,99.90
2019-03-23T01:38:23.096Z,99.90
2019-03-23T01:40:51.472Z,99.90
2019-03-23T01:43:19.855Z,99.90
2019-03-23T01:45:48.247Z,99.90
2019-03-23T01:48:16.635Z,99.90
2019-03-23T01:50:45.035Z,99.90
2019-03-23T01:53:13.415Z,99.90
2019-03-23T01:55:41.794Z,99.90
2019-03-23T01:58:10.189Z,99.90
2019-03-23T02:00:38.578Z,99.90
2019-03-23T02:03:06.968Z,99.90
2019-03-23T02:05:35.352Z,99.90
2019-03-23T02:08:03.743Z,99.90
2019-03-23T02:10:32.138Z,99.90
2019-03-23T02:13:00.512Z,99.90
2019-03-23T02:15:28.903Z,99.90
2019-03-23T02:17:57.306Z,99.90
2019-03-23T02:20:25.683Z,99.90
2019-03-23T02:22:54.067Z,99.90
2019-03-23T02:25:22.468Z,99.90
2019-03-23T02:27:50.843Z,99.90
2019-03-23T02:30:19.261Z,99.90
2019-03-23T02:32:47.695Z,99.90
2019-03-23T02:35:16.080Z,99.90
2019-03-23T02:37:44.693Z,99.90
2019-03-23T02:40:13.145Z,99.90
2019-03-23T02:42:41.541Z,99.90
2019-03-23T02:45:12.232Z,99.90
2019-03-23T02:47:40.629Z,99.90
2019-03-23T02:50:10.287Z,99.90
2019-03-23T02:52:38.680Z,99.90
2019-03-23T02:55:09.209Z,99.90
2019-03-23T02:57:37.600Z,99.90
2019-03-23T03:00:09.288Z,99.90
2019-03-23T03:02:37.737Z,99.90
2019-03-23T03:05:08.268Z,99.90
2019-03-23T03:07:42.414Z,99.90
2019-03-23T03:10:11.014Z,99.90
2019-03-23T03:12:39.449Z,99.90
2019-03-23T03:15:09.076Z,99.90
2019-03-23T03:17:37.464Z,99.90
2019-03-23T03:20:07.606Z,99.90
2019-03-23T03:22:36.006Z,99.90
2019-03-23T03:25:06.407Z,99.90
2019-03-23T03:27:34.810Z,99.90
2019-03-23T03:30:03.848Z,99.90
2019-03-23T03:32:32.250Z,99.90
2019-03-23T03:35:00.768Z,99.90
2019-03-23T03:37:29.199Z,99.90
2019-03-23T03:39:57.601Z,99.90
2019-03-23T03:42:26.106Z,99.90
2019-03-23T03:44:54.511Z,99.90
2019-03-23T03:47:22.986Z,99.90
2019-03-23T03:49:51.355Z,99.90
2019-03-23T03:52:19.758Z,99.90
2019-03-23T03:54:48.144Z,99.90
2019-03-23T03:57:16.528Z,99.90
2019-03-23T03:59:44.913Z,99.90
2019-03-23T04:02:13.308Z,99.90
2019-03-23T04:04:41.708Z,99.90
2019-03-23T04:07:10.088Z,99.90
2019-03-23T04:09:40.438Z,99.90
2019-03-23T04:12:08.596Z,99.90
2019-03-23T04:14:36.981Z,99.90
2019-03-23T04:17:05.379Z,99.90
2019-03-23T04:19:33.758Z,99.90
2019-03-23T04:22:02.154Z,99.90
2019-03-23T04:24:30.535Z,99.90
2019-03-23T04:26:58.922Z,99.90
2019-03-23T04:29:27.315Z,99.90
2019-03-23T04:31:55.705Z,99.90
2019-03-23T04:34:24.090Z,99.90
2019-03-23T04:36:52.492Z,99.90
2019-03-23T04:39:20.881Z,99.90
2019-03-23T04:41:49.264Z,99.90
2019-03-23T04:44:17.655Z,99.90
2019-03-23T04:46:46.054Z,99.90
2019-03-23T04:49:14.439Z,99.90
2019-03-23T04:51:42.813Z,99.90
2019-03-23T04:54:11.212Z,99.90
2019-03-23T04:56:39.595Z,99.90
2019-03-23T04:59:07.984Z,99.90
2019-03-23T05:01:36.377Z,99.90
2019-03-23T05:04:04.767Z,99.90
2019-03-23T05:06:33.160Z,99.90
2019-03-23T05:09:01.540Z,99.90
2019-03-23T05:11:29.927Z,99.90
2019-03-23T05:13:58.315Z,99.90
2019-03-23T05:16:26.724Z,99.90
2019-03-23T05:18:55.099Z,99.90
2019-03-23T05:21:23.480Z,99.90
2019-03-23T05:23:51.878Z,99.90
2019-03-23T05:26:20.269Z,99.90
2019-03-23T05:28:48.659Z,99.90
2019-03-23T05:31:17.056Z,99.90
2019-03-23T05:33:45.432Z,99.90
2019-03-23T05:36:15.354Z,99.90
2019-03-23T05:38:44.927Z,99.90
2019-03-23T05:41:13.464Z,99.90
2019-03-23T05:43:41.849Z,99.90
2019-03-23T05:46:10.228Z,99.90
2019-03-23T05:48:38.628Z,99.90
2019-03-23T05:51:07.012Z,99.90
2019-03-23T05:53:35.411Z,99.90
2019-03-23T05:56:03.787Z,99.90
2019-03-23T05:58:32.165Z,99.90
2019-03-23T06:01:00.560Z,99.90
2019-03-23T06:03:28.951Z,99.90
2019-03-23T06:05:57.339Z,99.90
2019-03-23T06:08:25.732Z,99.90
2019-03-23T06:10:54.116Z,99.90
2019-03-23T06:13:22.504Z,99.90
2019-03-23T06:15:50.895Z,99.90
2019-03-23T06:18:19.276Z,99.90
2019-03-23T06:20:47.659Z,99.90
2019-03-23T06:23:16.044Z,99.90
2019-03-23T06:25:44.436Z,99.90
2019-03-23T06:28:12.815Z,99.90
2019-03-23T06:30:41.215Z,99.90
2019-03-23T06:33:09.615Z,99.90
2019-03-23T06:35:38.001Z,99.90
2019-03-23T06:38:06.399Z,99.90
2019-03-23T06:40:34.775Z,99.90
2019-03-23T06:43:03.165Z,99.90
2019-03-23T06:45:31.559Z,99.90
2019-03-23T06:47:59.940Z,99.90
2019-03-23T06:50:28.352Z,99.90
2019-03-23T06:52:56.735Z,99.90
2019-03-23T06:55:25.120Z,99.90
2019-03-23T06:57:53.515Z,99.80
2019-03-23T07:00:21.901Z,99.90
2019-03-23T07:02:50.272Z,99.90
2019-03-23T07:05:18.660Z,99.90
2019-03-23T07:07:47.053Z,99.90
2019-03-23T07:10:15.507Z,99.90
2019-03-23T07:12:43.892Z,99.90
2019-03-23T07:15:19.931Z,99.70
2019-03-23T07:17:42.826Z,99.30
2019-03-23T07:20:13.052Z,99.10
2019-03-23T07:22:41.449Z,99.40
2019-03-23T07:25:11.470Z,99.40
2019-03-23T07:27:39.867Z,99.30
2019-03-23T07:30:19.117Z,99.20
2019-03-23T07:32:47.508Z,99.50
2019-03-23T07:35:16.070Z,99.40
2019-03-23T07:37:44.448Z,99.30
2019-03-23T07:40:13.269Z,98.80
2019-03-23T07:42:41.727Z,98.30
2019-03-23T07:45:15.075Z,98.70
2019-03-23T07:47:43.548Z,98.50
2019-03-23T07:50:13.464Z,98.30
2019-03-23T07:52:41.851Z,98.00
2019-03-23T07:55:16.992Z,98.50
2019-03-23T07:57:45.541Z,97.70
2019-03-23T08:00:19.389Z,97.40
2019-03-23T08:02:47.851Z,97.30
2019-03-23T08:05:16.236Z,97.10
2019-03-23T08:07:44.619Z,96.70
2019-03-23T08:10:16.088Z,96.60
2019-03-23T08:12:44.479Z,97.20
2019-03-23T08:15:12.932Z,96.70
2019-03-23T08:17:41.320Z,96.30
2019-03-23T08:20:09.714Z,96.40
2019-03-23T08:22:38.096Z,96.60
2019-03-23T08:25:07.116Z,95.60
2019-03-23T08:27:35.508Z,95.30
2019-03-23T08:30:05.933Z,95.70
2019-03-23T08:32:34.321Z,95.20
2019-03-23T08:35:02.747Z,94.80
2019-03-23T08:37:31.123Z,94.30
2019-03-23T08:39:59.515Z,94.90
2019-03-23T08:42:27.920Z,94.60
2019-03-23T08:44:56.295Z,94.50
2019-03-23T08:47:24.692Z,94.00
2019-03-23T08:49:53.076Z,94.20
2019-03-23T08:52:21.464Z,94.20
2019-03-23T08:54:49.867Z,94.00
2019-03-23T08:57:18.256Z,93.90
2019-03-23T08:59:47.611Z,94.40
2019-03-23T09:02:16.010Z,94.30
2019-03-23T09:04:44.404Z,94.70
2019-03-23T09:07:12.783Z,94.90
2019-03-23T09:09:41.168Z,93.70
2019-03-23T09:12:09.567Z,93.50
2019-03-23T09:14:37.952Z,93.10
2019-03-23T09:17:06.337Z,93.30
2019-03-23T09:19:35.103Z,93.20
2019-03-23T09:22:03.562Z,93.00
2019-03-23T09:24:31.947Z,92.70
2019-03-23T09:27:00.340Z,92.30
2019-03-23T09:29:28.800Z,91.50
2019-03-23T09:31:57.191Z,90.90
2019-03-23T09:34:25.611Z,90.20
2019-03-23T09:36:53.995Z,88.90
2019-03-23T09:39:22.380Z,87.00
2019-03-23T09:41:50.772Z,81.00
2019-03-23T09:44:19.156Z,80.10
2019-03-23T09:46:47.540Z,77.90
2019-03-23T09:49:15.933Z,74.80
2019-03-23T09:51:44.323Z,76.00
2019-03-23T09:54:12.711Z,73.40
2019-03-23T09:56:41.111Z,73.90
2019-03-23T09:59:09.491Z,71.80
2019-03-23T10:01:37.880Z,72.40
2019-03-23T10:04:06.274Z,73.30
2019-03-23T10:06:34.649Z,75.20
2019-03-23T10:09:04.227Z,75.50
2019-03-23T10:11:32.620Z,76.20
2019-03-23T10:14:03.120Z,76.10
2019-03-23T10:16:31.104Z,76.10
2019-03-23T10:18:59.495Z,79.00
2019-03-23T10:21:27.879Z,78.10
2019-03-23T10:23:56.272Z,77.10
2019-03-23T10:26:24.651Z,77.90
2019-03-23T10:28:53.032Z,77.40
2019-03-23T10:31:21.420Z,78.30
2019-03-23T10:33:49.807Z,76.90
2019-03-23T10:36:18.200Z,77.80
2019-03-23T10:38:46.583Z,75.80
2019-03-23T10:41:14.976Z,74.20
2019-03-23T10:43:43.373Z,77.60
2019-03-23T10:46:11.751Z,77.60
2019-03-23T10:48:40.143Z,77.10
2019-03-23T10:51:08.523Z,77.50
2019-03-23T10:53:36.905Z,75.90
2019-03-23T10:56:05.301Z,78.60
2019-03-23T10:58:33.692Z,78.40
2019-03-23T11:01:02.068Z,76.50
2019-03-23T11:03:30.451Z,77.80
2019-03-23T11:05:58.854Z,79.00
2019-03-23T11:08:27.248Z,78.90
2019-03-23T11:10:55.627Z,81.50
2019-03-23T11:13:24.040Z,80.00
2019-03-23T11:15:52.418Z,82.40
2019-03-23T11:18:20.797Z,82.50
2019-03-23T11:20:49.191Z,80.90
2019-03-23T11:23:17.582Z,83.60
2019-03-23T11:25:45.974Z,83.60
2019-03-23T11:28:14.367Z,87.20
2019-03-23T11:30:42.755Z,86.50
2019-03-23T11:33:11.144Z,86.00
2019-03-23T11:35:39.523Z,86.00
2019-03-23T11:38:07.916Z,86.60
2019-03-23T11:40:36.301Z,85.40
2019-03-23T11:43:04.691Z,86.90
2019-03-23T11:45:33.106Z,87.50
2019-03-23T11:48:01.465Z,87.90
2019-03-23T11:50:29.855Z,89.90
2019-03-23T11:52:58.244Z,89.20
2019-03-23T11:55:26.628Z,90.30
2019-03-23T11:57:55.024Z,89.50
2019-03-23T12:00:23.407Z,89.60
2019-03-23T12:02:51.800Z,89.00
2019-03-23T12:05:20.184Z,89.60
2019-03-23T12:07:48.559Z,89.60
2019-03-23T12:10:17.028Z,89.10
2019-03-23T12:12:45.778Z,88.90
2019-03-23T12:15:14.644Z,89.60
2019-03-23T12:17:43.023Z,89.90
2019-03-23T12:20:12.240Z,89.40
2019-03-23T12:22:40.627Z,87.30
2019-03-23T12:25:09.288Z,89.60
2019-03-23T12:27:37.672Z,88.40
2019-03-23T12:30:09.491Z,88.40
2019-03-23T12:32:37.880Z,88.50
2019-03-23T12:35:08.008Z,90.10
2019-03-23T12:37:36.402Z,89.20
2019-03-23T12:40:06.619Z,90.20
2019-03-23T12:42:35.081Z,90.80
2019-03-23T12:45:04.691Z,89.90
2019-03-23T12:47:33.070Z,90.00
2019-03-23T12:50:02.415Z,90.00
2019-03-23T12:52:30.816Z,89.80
2019-03-23T12:54:59.192Z,89.10
2019-03-23T12:57:27.570Z,90.70
2019-03-23T12:59:55.971Z,90.10
2019-03-23T13:02:24.360Z,90.20
2019-03-23T13:04:52.735Z,89.50
2019-03-23T13:07:21.128Z,90.20
2019-03-23T13:09:49.512Z,89.00
2019-03-23T13:12:17.907Z,89.00
2019-03-23T13:14:46.303Z,88.40
2019-03-23T13:17:14.680Z,88.40
2019-03-23T13:19:43.063Z,88.30
2019-03-23T13:22:11.824Z,88.80
2019-03-23T13:24:40.203Z,88.80
2019-03-23T13:27:08.583Z,88.80
2019-03-23T13:29:36.983Z,88.30
2019-03-23T13:32:05.371Z,87.50
2019-03-23T13:34:33.751Z,87.70
2019-03-23T13:37:02.148Z,87.40
2019-03-23T13:39:30.532Z,88.10
2019-03-23T13:41:58.939Z,87.80
2019-03-23T13:44:27.329Z,87.70
2019-03-23T13:46:55.703Z,88.10
2019-03-23T13:49:24.101Z,89.00
2019-03-23T13:52:03.036Z,89.30
2019-03-23T13:54:31.431Z,88.40
2019-03-23T13:56:59.943Z,89.70
2019-03-23T13:59:28.334Z,89.50
2019-03-23T14:01:56.751Z,89.10
2019-03-23T14:04:25.136Z,88.70
2019-03-23T14:06:53.515Z,88.70
2019-03-23T14:09:21.906Z,89.50
2019-03-23T14:11:55.008Z,90.20
2019-03-23T14:14:20.404Z,90.70
2019-03-23T14:16:48.785Z,90.30
2019-03-23T14:19:17.181Z,90.60
2019-03-23T14:21:45.560Z,91.00
2019-03-23T14:24:13.956Z,91.10
2019-03-23T14:26:42.340Z,91.20
2019-03-23T14:29:10.731Z,91.00
2019-03-23T14:31:39.124Z,91.80
2019-03-23T14:34:07.515Z,91.90
2019-03-23T14:36:35.909Z,92.10
2019-03-23T14:39:05.931Z,92.10
2019-03-23T14:41:34.324Z,92.00
2019-03-23T14:44:02.710Z,92.00
2019-03-23T14:46:31.091Z,92.80
2019-03-23T14:49:01.910Z,92.90
2019-03-23T14:51:29.603Z,92.20
2019-03-23T14:53:58.008Z,92.30
2019-03-23T14:56:31.597Z,91.90
2019-03-23T14:58:56.535Z,92.40
2019-03-23T15:01:24.928Z,92.50
2019-03-23T15:03:53.336Z,92.80
2019-03-23T15:06:21.699Z,92.70
2019-03-23T15:08:50.080Z,93.00
2019-03-23T15:11:18.495Z,92.90
2019-03-23T15:13:47.635Z,93.10
2019-03-23T15:16:16.134Z,93.00
2019-03-23T15:18:44.511Z,92.90
2019-03-23T15:21:12.899Z,93.10
2019-03-23T15:23:41.300Z,93.20
2019-03-23T15:26:09.679Z,93.10
2019-03-23T15:28:38.076Z,93.20
2019-03-23T15:31:06.459Z,93.30
2019-03-23T15:33:34.847Z,93.30
2019-03-23T15:36:03.674Z,93.50
2019-03-23T15:38:32.200Z,93.30
2019-03-23T15:41:00.580Z,93.90
2019-03-23T15:43:28.980Z,94.50
2019-03-23T15:45:57.364Z,94.20
2019-03-23T15:48:25.752Z,94.30
2019-03-23T15:50:54.156Z,94.20
2019-03-23T15:53:22.535Z,93.70
2019-03-23T15:55:50.917Z,93.70
2019-03-23T15:58:19.319Z,93.80
2019-03-23T16:00:47.700Z,94.10
2019-03-23T16:03:16.080Z,94.20
2019-03-23T16:05:44.475Z,94.10
2019-03-23T16:08:12.865Z,94.50
2019-03-23T16:10:41.260Z,94.90
2019-03-23T16:13:09.634Z,94.40
2019-03-23T16:15:38.083Z,94.40
2019-03-23T16:18:06.491Z,94.90
2019-03-23T16:20:34.876Z,95.20
2019-03-23T16:23:03.261Z,95.10
2019-03-23T16:25:31.648Z,95.20
2019-03-23T16:28:00.027Z,95.20
2019-03-23T16:30:32.287Z,95.20
2019-03-23T16:33:00.672Z,95.20
2019-03-23T16:35:29.051Z,95.50
2019-03-23T16:37:57.459Z,95.60
2019-03-23T16:40:25.847Z,95.50
2019-03-23T16:42:54.238Z,95.50
2019-03-23T16:45:22.632Z,95.80
2019-03-23T16:47:51.014Z,95.90
2019-03-23T16:50:19.407Z,96.00
2019-03-23T16:52:47.803Z,96.00
2019-03-23T16:55:16.202Z,96.10
2019-03-23T16:57:44.572Z,96.40
2019-03-23T17:00:14.900Z,96.60
2019-03-23T17:02:43.280Z,96.60
2019-03-23T17:05:11.735Z,96.70
2019-03-23T17:07:40.128Z,96.90
2019-03-23T17:10:09.196Z,96.90
2019-03-23T17:12:37.562Z,97.00
2019-03-23T17:15:25.303Z,96.90
2019-03-23T17:17:53.697Z,96.80
2019-03-23T17:20:22.080Z,97.10
2019-03-23T17:22:50.477Z,97.20
2019-03-23T17:25:18.868Z,97.30
2019-03-23T17:27:47.252Z,97.50
2019-03-23T17:30:15.700Z,97.70
2019-03-23T17:32:44.087Z,97.90
2019-03-23T17:35:12.487Z,98.00
2019-03-23T17:37:40.878Z,98.30
2019-03-23T17:40:09.459Z,98.40
2019-03-23T17:42:37.920Z,98.60
2019-03-23T17:45:08.116Z,98.60
2019-03-23T17:47:36.503Z,98.70
2019-03-23T17:50:06.024Z,98.90
2019-03-23T17:52:34.479Z,99.00
2019-03-23T17:55:03.240Z,99.00
2019-03-23T17:57:31.620Z,99.10
2019-03-23T18:00:00.008Z,99.20
2019-03-23T18:02:28.391Z,99.40
2019-03-23T18:04:56.787Z,99.50
2019-03-23T18:07:25.170Z,99.70
2019-03-23T18:09:53.569Z,99.80
2019-03-23T18:12:21.952Z,99.90
2019-03-23T18:14:50.351Z,99.90
2019-03-23T18:17:18.727Z,99.90
2019-03-23T18:19:47.117Z,99.90
2019-03-23T18:22:15.503Z,99.90
2019-03-23T18:24:43.895Z,99.90
2019-03-23T18:27:12.287Z,99.90
2019-03-23T18:29:40.683Z,99.90
2019-03-23T18:32:09.089Z,99.90
2019-03-23T18:34:37.461Z,99.90
2019-03-23T18:37:05.890Z,99.90
2019-03-23T18:39:34.346Z,99.90
2019-03-23T18:42:02.796Z,99.90
2019-03-23T18:44:31.643Z,99.90
2019-03-23T18:47:00.044Z,99.90
2019-03-23T18:49:28.480Z,99.90
2019-03-23T18:51:56.871Z,99.90
2019-03-23T18:54:25.331Z,99.90
2019-03-23T18:56:53.724Z,99.90
2019-03-23T18:59:41.463Z,99.90
2019-03-23T19:02:09.865Z,99.90
2019-03-23T19:04:38.256Z,99.90
2019-03-23T19:07:06.656Z,99.90
2019-03-23T19:09:35.048Z,99.90
2019-03-23T19:12:03.439Z,99.90
2019-03-23T19:14:31.830Z,99.90
2019-03-23T19:17:00.216Z,99.90
2019-03-23T19:19:28.615Z,99.90
2019-03-23T19:21:57.004Z,99.90
2019-03-23T19:24:25.402Z,99.90
2019-03-23T19:26:53.802Z,99.90
2019-03-23T19:29:22.188Z,99.90
2019-03-23T19:31:50.578Z,99.90
2019-03-23T19:34:18.975Z,99.90
2019-03-23T19:36:47.364Z,99.90
2019-03-23T19:39:15.761Z,99.90
2019-03-23T19:41:44.148Z,99.90
2019-03-23T19:44:12.540Z,99.90
2019-03-23T19:46:40.924Z,99.90
2019-03-23T19:49:09.315Z,99.90
2019-03-23T19:51:37.715Z,99.90
2019-03-23T19:54:06.101Z,99.90
2019-03-23T19:56:34.483Z,99.90
2019-03-23T19:59:02.879Z,99.90
2019-03-23T20:01:31.263Z,99.90
2019-03-23T20:03:59.648Z,99.90
2019-03-23T20:06:28.070Z,99.90
2019-03-23T20:08:56.501Z,99.90
2019-03-23T20:11:24.915Z,99.90
2019-03-23T20:13:58.747Z,99.90
2019-03-23T20:16:23.468Z,99.90
2019-03-23T20:18:51.852Z,99.90
2019-03-23T20:21:20.249Z,99.90
2019-03-23T20:23:48.634Z,99.90
2019-03-23T20:26:17.017Z,99.90
2019-03-23T20:28:45.420Z,99.90
2019-03-23T20:31:13.802Z,99.90
2019-03-23T20:33:42.188Z,99.90
2019-03-23T20:36:10.584Z,99.90
2019-03-23T20:38:39.008Z,99.90
2019-03-23T20:41:07.386Z,99.90
2019-03-23T20:43:35.991Z,99.90
2019-03-23T20:46:04.400Z,99.90
2019-03-23T20:48:32.943Z,99.90
2019-03-23T20:51:01.664Z,99.90
2019-03-23T20:53:49.400Z,99.90
2019-03-23T20:56:17.786Z,99.90
2019-03-23T20:58:46.164Z,99.90
2019-03-23T21:01:14.574Z,99.90
2019-03-23T21:03:42.943Z,99.90
2019-03-23T21:06:12.607Z,99.90
2019-03-23T21:08:41.203Z,99.90
2019-03-23T21:11:09.584Z,99.90
2019-03-23T21:13:37.980Z,99.90
2019-03-23T21:16:06.429Z,99.90
2019-03-23T21:18:34.803Z,99.90
2019-03-23T21:21:03.249Z,99.90
2019-03-23T21:23:31.659Z,99.90
2019-03-23T21:26:00.048Z,99.90
2019-03-23T21:28:28.440Z,99.90
2019-03-23T21:30:56.832Z,99.90
2019-03-23T21:33:31.775Z,99.90
2019-03-23T21:35:55.317Z,99.90
2019-03-23T21:38:43.052Z,99.90
2019-03-23T21:41:11.436Z,99.90
2019-03-23T21:43:39.832Z,99.90
2019-03-23T21:46:08.212Z,99.90
2019-03-23T21:48:36.592Z,99.90
2019-03-23T21:51:04.981Z,99.90
2019-03-23T21:53:33.358Z,99.90
2019-03-23T21:56:01.752Z,99.90
2019-03-23T21:58:30.128Z,99.90
2019-03-23T22:00:58.752Z,99.90
2019-03-23T22:03:27.144Z,99.90
2019-03-23T22:05:55.528Z,99.90
2019-03-23T22:08:23.900Z,99.90
2019-03-23T22:10:52.294Z,99.90
2019-03-23T22:13:20.912Z,99.90
2019-03-23T22:15:49.293Z,99.90
2019-03-23T22:18:17.692Z,99.90
2019-03-23T22:20:46.072Z,99.90
2019-03-23T22:23:14.455Z,99.90
2019-03-23T22:25:42.855Z,99.90
2019-03-23T22:28:11.238Z,99.90
2019-03-23T22:30:39.623Z,99.90
2019-03-23T22:33:08.020Z,99.90
2019-03-23T22:35:36.400Z,99.90
2019-03-23T22:38:04.779Z,99.90
2019-03-23T22:40:33.183Z,99.90
2019-03-23T22:43:01.561Z,99.90
2019-03-23T22:45:29.936Z,99.90
2019-03-23T22:47:59.180Z,99.90
2019-03-23T22:50:27.563Z,99.90
2019-03-23T22:52:55.943Z,99.90
2019-03-23T22:55:24.323Z,99.90
2019-03-23T22:57:52.710Z,99.90
2019-03-23T23:00:41.395Z,99.90
2019-03-23T23:03:09.924Z,99.90
2019-03-23T23:05:38.302Z,99.90
2019-03-23T23:08:06.696Z,99.90
2019-03-23T23:10:35.303Z,99.90
2019-03-23T23:13:03.687Z,99.90
2019-03-23T23:15:32.071Z,99.90
2019-03-23T23:18:00.455Z,99.90
2019-03-23T23:20:28.846Z,99.90
2019-03-23T23:22:57.231Z,99.90
2019-03-23T23:25:25.604Z,99.90
2019-03-23T23:27:53.995Z,99.90
2019-03-23T23:30:22.383Z,99.90
2019-03-23T23:32:51.067Z,99.90
2019-03-23T23:35:19.447Z,99.90
2019-03-23T23:37:47.834Z,99.90
2019-03-23T23:40:16.219Z,99.90
2019-03-23T23:42:44.604Z,99.90
2019-03-23T23:45:15.711Z,99.90
2019-03-23T23:47:43.167Z,99.90
2019-03-23T23:50:12.196Z,99.90
2019-03-23T23:52:40.576Z,99.90
2019-03-23T23:55:09.208Z,99.90
2019-03-23T23:57:37.587Z,99.90
